createdAt,value
2023-03-12T00:00:08.730Z,61.70
2023-03-12T00:02:35.891Z,60.60
2023-03-12T00:05:03.152Z,61.25
2023-03-12T00:07:30.057Z,59.86
2023-03-12T00:09:56.810Z,59.81
2023-03-12T00:12:23.688Z,61.16
2023-03-12T00:14:50.370Z,61.48
2023-03-12T00:17:17.223Z,62.16
2023-03-12T00:19:45.420Z,60.02
2023-03-12T00:22:12.324Z,61.21
2023-03-12T00:24:39.339Z,60.67
2023-03-12T00:27:06.958Z,61.11
2023-03-12T00:29:34.057Z,60.65
2023-03-12T00:32:00.959Z,60.53
2023-03-12T00:34:27.660Z,62.46
2023-03-12T00:36:54.530Z,62.14
2023-03-12T00:39:21.194Z,62.85
2023-03-12T00:41:48.088Z,62.71
2023-03-12T00:44:14.733Z,61.55
2023-03-12T00:46:41.609Z,63.64
2023-03-12T00:49:08.709Z,64.31
2023-03-12T00:51:35.582Z,62.81
2023-03-12T00:54:02.437Z,61.40
2023-03-12T00:56:29.142Z,61.47
2023-03-12T00:58:56.009Z,62.05
2023-03-12T01:01:22.715Z,61.59
2023-03-12T01:03:52.351Z,61.26
2023-03-12T01:06:19.539Z,62.22
2023-03-12T01:08:46.569Z,62.19
2023-03-12T01:11:17.196Z,62.53
2023-03-12T01:13:44.138Z,61.71
2023-03-12T01:16:10.939Z,62.46
2023-03-12T01:18:37.868Z,61.80
2023-03-12T01:21:04.695Z,62.01
2023-03-12T01:23:31.690Z,61.73
2023-03-12T01:25:59.578Z,63.10
2023-03-12T01:28:27.017Z,64.71
2023-03-12T01:30:54.029Z,63.42
2023-03-12T01:33:23.112Z,64.71
2023-03-12T01:35:50.568Z,65.38
2023-03-12T01:38:19.233Z,65.89
2023-03-12T01:40:46.517Z,65.77
2023-03-12T01:43:31.972Z,66.14
2023-03-12T01:46:28.420Z,67.56
2023-03-12T01:49:03.236Z,65.84
2023-03-12T01:51:39.249Z,66.91
2023-03-12T01:54:10.108Z,65.79
2023-03-12T01:56:38.446Z,66.39
2023-03-12T01:59:22.934Z,65.42
2023-03-12T02:01:50.748Z,66.23
2023-03-12T02:04:19.804Z,67.89
2023-03-12T02:07:02.827Z,67.71
2023-03-12T02:09:32.586Z,68.79
2023-03-12T02:11:59.580Z,67.86
2023-03-12T02:14:26.509Z,65.95
2023-03-12T02:16:54.282Z,69.26
2023-03-12T02:19:36.209Z,68.53
2023-03-12T02:22:04.152Z,66.97
2023-03-12T02:24:36.418Z,65.98
2023-03-12T02:27:04.032Z,65.78
2023-03-12T02:29:32.493Z,68.35
2023-03-12T02:32:01.354Z,66.75
2023-03-12T02:34:28.745Z,68.52
2023-03-12T02:36:55.879Z,68.77
2023-03-12T02:39:23.101Z,70.88
2023-03-12T02:41:55.998Z,69.54
2023-03-12T02:44:25.734Z,69.89
2023-03-12T02:46:55.066Z,71.96
2023-03-12T02:49:23.451Z,71.18
2023-03-12T02:51:50.957Z,70.11
2023-03-12T02:54:19.654Z,68.49
2023-03-12T02:56:47.184Z,67.31
2023-03-12T02:59:15.382Z,64.56
2023-03-12T03:01:43.258Z,64.27
2023-03-12T03:04:11.246Z,66.91
2023-03-12T03:06:40.741Z,64.77
2023-03-12T03:09:07.760Z,65.27
2023-03-12T03:11:34.772Z,65.77
2023-03-12T03:14:04.121Z,65.62
2023-03-12T03:16:31.024Z,69.09
2023-03-12T03:18:57.696Z,69.71
2023-03-12T03:21:24.873Z,68.59
2023-03-12T03:23:51.775Z,70.49
2023-03-12T03:26:20.081Z,72.70
2023-03-12T03:28:47.131Z,71.78
2023-03-12T03:31:14.188Z,71.87
2023-03-12T03:33:41.628Z,74.70
2023-03-12T03:36:09.767Z,73.09
2023-03-12T03:38:36.675Z,72.33
2023-03-12T03:41:03.405Z,72.48
2023-03-12T03:43:30.263Z,71.72
2023-03-12T03:46:01.240Z,71.47
2023-03-12T03:48:28.221Z,71.46
2023-03-12T03:50:55.265Z,74.49
2023-03-12T03:53:22.148Z,75.16
2023-03-12T03:55:48.814Z,72.52
2023-03-12T03:58:15.838Z,71.84
2023-03-12T04:00:45.415Z,71.88
2023-03-12T04:03:13.500Z,71.76
2023-03-12T04:05:40.845Z,72.74
2023-03-12T04:08:08.118Z,72.81
2023-03-12T04:10:34.972Z,71.84
2023-03-12T04:13:01.644Z,72.96
2023-03-12T04:15:28.540Z,72.16
2023-03-12T04:17:55.258Z,74.16
2023-03-12T04:20:22.154Z,72.26
2023-03-12T04:22:48.819Z,71.41
2023-03-12T04:25:15.789Z,73.68
2023-03-12T04:27:42.655Z,72.84
2023-03-12T04:30:09.650Z,73.60
2023-03-12T04:32:36.513Z,73.29
2023-03-12T04:35:03.495Z,74.18
2023-03-12T04:37:33.660Z,73.16
2023-03-12T04:40:02.486Z,75.34
2023-03-12T04:42:29.376Z,73.52
2023-03-12T04:44:56.102Z,73.05
2023-03-12T04:47:22.993Z,72.34
2023-03-12T04:49:49.645Z,76.41
2023-03-12T04:52:17.866Z,75.53
2023-03-12T04:54:47.840Z,75.01
2023-03-12T04:57:15.039Z,72.49
2023-03-12T04:59:41.892Z,72.85
2023-03-12T05:02:08.726Z,72.62
2023-03-12T05:04:35.608Z,72.83
2023-03-12T05:07:02.312Z,70.15
2023-03-12T05:09:29.343Z,69.62
2023-03-12T05:11:56.240Z,70.24
2023-03-12T05:14:22.990Z,71.14
2023-03-12T05:16:49.874Z,71.67
2023-03-12T05:19:16.630Z,69.60
2023-03-12T05:21:43.773Z,68.73
2023-03-12T05:24:13.171Z,68.39
2023-03-12T05:26:40.106Z,69.51
2023-03-12T05:29:07.114Z,72.25
2023-03-12T05:31:35.565Z,72.50
2023-03-12T05:34:03.580Z,74.44
2023-03-12T05:36:30.531Z,74.53
2023-03-12T05:38:57.543Z,73.64
2023-03-12T05:41:27.452Z,74.15
2023-03-12T05:43:56.311Z,73.88
2023-03-12T05:46:24.393Z,72.98
2023-03-12T05:48:51.492Z,71.06
2023-03-12T05:51:18.626Z,72.49
2023-03-12T05:53:45.585Z,70.61
2023-03-12T05:56:15.102Z,66.58
2023-03-12T05:58:42.529Z,63.51
2023-03-12T06:01:19.588Z,62.19
2023-03-12T06:03:46.927Z,62.46
2023-03-12T06:06:14.531Z,58.69
2023-03-12T06:08:41.918Z,57.31
2023-03-12T06:11:10.302Z,55.73
2023-03-12T06:13:37.223Z,53.83
2023-03-12T06:16:10.224Z,51.99
2023-03-12T06:18:37.940Z,51.13
2023-03-12T06:21:18.999Z,51.62
2023-03-12T06:23:46.492Z,51.87
2023-03-12T06:26:14.113Z,51.20
2023-03-12T06:28:41.005Z,49.96
2023-03-12T06:31:08.957Z,48.19
2023-03-12T06:33:36.110Z,48.99
2023-03-12T06:36:05.704Z,48.81
2023-03-12T06:38:32.886Z,48.85
2023-03-12T06:41:05.155Z,49.54
2023-03-12T06:43:33.061Z,48.02
2023-03-12T06:46:01.207Z,47.74
2023-03-12T06:48:30.274Z,48.87
2023-03-12T06:50:57.132Z,48.27
2023-03-12T06:53:25.411Z,48.42
2023-03-12T06:55:52.453Z,48.86
2023-03-12T06:58:19.533Z,50.18
2023-03-12T07:00:46.435Z,49.25
2023-03-12T07:03:13.387Z,48.38
2023-03-12T07:05:40.615Z,48.74
2023-03-12T07:08:07.536Z,45.92
2023-03-12T07:10:34.438Z,47.10
2023-03-12T07:13:01.307Z,45.83
2023-03-12T07:15:27.956Z,44.64
2023-03-12T07:17:54.990Z,42.80
2023-03-12T07:20:21.899Z,42.77
2023-03-12T07:22:48.751Z,41.18
2023-03-12T07:25:17.288Z,40.74
2023-03-12T07:27:45.477Z,40.62
2023-03-12T07:30:12.333Z,40.62
2023-03-12T07:32:39.195Z,41.43
2023-03-12T07:35:06.549Z,39.67
2023-03-12T07:37:33.438Z,39.42
2023-03-12T07:40:00.421Z,39.09
2023-03-12T07:42:27.398Z,38.17
2023-03-12T07:44:54.332Z,37.71
2023-03-12T07:47:24.397Z,36.52
2023-03-12T07:49:51.949Z,35.61
2023-03-12T07:52:20.473Z,37.28
2023-03-12T07:54:47.949Z,36.71
2023-03-12T07:57:15.144Z,37.59
2023-03-12T07:59:42.161Z,35.55
2023-03-12T08:02:10.689Z,35.75
2023-03-12T08:04:37.813Z,36.17
2023-03-12T08:07:07.282Z,37.44
2023-03-12T08:09:35.780Z,39.86
2023-03-12T08:12:02.761Z,38.92
2023-03-12T08:14:31.865Z,38.82
2023-03-12T08:16:59.244Z,39.90
2023-03-12T08:19:26.941Z,40.21
2023-03-12T08:21:54.532Z,40.06
2023-03-12T08:24:22.251Z,38.43
2023-03-12T08:26:49.154Z,39.16
2023-03-12T08:29:16.795Z,39.42
2023-03-12T08:32:01.528Z,38.44
2023-03-12T08:34:30.685Z,39.57
2023-03-12T08:36:57.513Z,38.94
2023-03-12T08:39:24.411Z,39.27
2023-03-12T08:41:55.542Z,39.44
2023-03-12T08:44:23.612Z,40.91
2023-03-12T08:46:51.449Z,39.40
2023-03-12T08:49:18.846Z,38.77
2023-03-12T08:51:45.740Z,40.80
2023-03-12T08:54:12.627Z,40.89
2023-03-12T08:56:42.567Z,38.60
2023-03-12T08:59:13.674Z,41.01
2023-03-12T09:01:43.612Z,40.49
2023-03-12T09:04:11.267Z,40.46
2023-03-12T09:06:38.759Z,39.96
2023-03-12T09:09:06.499Z,40.11
2023-03-12T09:11:34.120Z,38.56
2023-03-12T09:14:42.693Z,37.89
2023-03-12T09:16:48.937Z,37.77
2023-03-12T09:19:16.060Z,38.51
2023-03-12T09:21:42.947Z,37.96
2023-03-12T09:24:10.589Z,38.47
2023-03-12T09:26:37.472Z,37.65
2023-03-12T09:29:04.153Z,35.62
2023-03-12T09:31:31.050Z,35.13
2023-03-12T09:33:57.957Z,34.29
2023-03-12T09:36:24.855Z,34.37
2023-03-12T09:38:51.760Z,34.46
2023-03-12T09:41:22.339Z,34.88
2023-03-12T09:43:56.821Z,35.05
2023-03-12T09:46:35.381Z,34.01
2023-03-12T09:49:05.551Z,33.62
2023-03-12T09:51:36.539Z,33.69
2023-03-12T09:54:06.490Z,33.72
2023-03-12T09:56:33.891Z,33.61
2023-03-12T09:59:00.986Z,32.90
2023-03-12T10:01:38.428Z,32.52
2023-03-12T10:04:23.651Z,32.01
2023-03-12T10:07:11.578Z,32.34
2023-03-12T10:09:47.490Z,32.19
2023-03-12T10:12:42.432Z,32.62
2023-03-12T10:15:47.185Z,32.25
2023-03-12T10:18:41.994Z,32.15
2023-03-12T10:21:43.427Z,31.94
2023-03-12T10:24:41.490Z,31.37
2023-03-12T10:27:17.641Z,32.49
2023-03-12T10:29:47.281Z,31.79
2023-03-12T10:32:17.957Z,32.32
2023-03-12T10:34:51.354Z,32.02
2023-03-12T10:37:25.579Z,31.29
2023-03-12T10:39:55.594Z,29.25
2023-03-12T10:42:25.179Z,30.39
2023-03-12T10:45:13.701Z,32.07
2023-03-12T10:47:42.212Z,31.17
2023-03-12T10:50:14.036Z,31.12
2023-03-12T10:52:41.344Z,32.30
2023-03-12T10:55:34.725Z,31.22
2023-03-12T10:58:01.575Z,31.00
2023-03-12T11:00:29.285Z,31.88
2023-03-12T11:03:04.703Z,31.71
2023-03-12T11:05:49.022Z,32.09
2023-03-12T11:08:36.064Z,31.46
2023-03-12T11:11:04.369Z,30.88
2023-03-12T11:13:38.529Z,30.24
2023-03-12T11:16:17.732Z,29.67
2023-03-12T11:19:01.618Z,30.10
2023-03-12T11:21:29.313Z,30.21
2023-03-12T11:23:59.147Z,30.66
2023-03-12T11:26:50.366Z,30.27
2023-03-12T11:29:27.686Z,30.25
2023-03-12T11:32:03.302Z,30.19
2023-03-12T11:34:33.845Z,29.00
2023-03-12T11:37:18.683Z,30.84
2023-03-12T11:39:56.568Z,28.79
2023-03-12T11:43:01.082Z,28.98
2023-03-12T11:46:00.154Z,30.23
2023-03-12T11:48:57.891Z,31.89
2023-03-12T11:51:28.060Z,32.19
2023-03-12T11:54:04.035Z,31.35
2023-03-12T11:56:35.132Z,30.30
2023-03-12T11:59:24.748Z,30.54
2023-03-12T12:02:16.669Z,31.14
2023-03-12T12:05:02.350Z,31.01
2023-03-12T12:07:57.304Z,32.22
2023-03-12T12:10:33.868Z,32.14
2023-03-12T12:13:09.021Z,33.40
2023-03-12T12:15:49.156Z,32.79
2023-03-12T12:18:42.904Z,32.15
2023-03-12T12:21:28.474Z,32.50
2023-03-12T12:23:55.485Z,31.76
2023-03-12T12:26:25.398Z,31.55
2023-03-12T12:29:06.214Z,30.89
2023-03-12T12:31:40.691Z,30.32
2023-03-12T12:34:41.522Z,31.14
2023-03-12T12:37:16.426Z,31.86
2023-03-12T12:39:47.982Z,31.13
2023-03-12T12:42:21.385Z,32.35
2023-03-12T12:44:55.734Z,33.38
2023-03-12T12:47:38.989Z,33.25
2023-03-12T12:50:06.292Z,35.44
2023-03-12T12:52:33.361Z,33.38
2023-03-12T12:55:19.599Z,32.92
2023-03-12T12:58:13.532Z,32.85
2023-03-12T13:00:48.258Z,31.67
2023-03-12T13:03:20.818Z,31.25
2023-03-12T13:05:56.684Z,31.98
2023-03-12T13:08:34.685Z,32.46
2023-03-12T13:11:25.395Z,32.20
2023-03-12T13:14:04.214Z,30.67
2023-03-12T13:16:36.398Z,31.67
2023-03-12T13:19:29.288Z,30.88
2023-03-12T13:22:13.540Z,32.12
2023-03-12T13:24:58.204Z,30.06
2023-03-12T13:27:29.976Z,31.33
2023-03-12T13:29:57.238Z,30.74
2023-03-12T13:32:36.396Z,31.60
2023-03-12T13:35:18.453Z,32.20
2023-03-12T13:37:54.181Z,31.88
2023-03-12T13:40:30.134Z,30.88
2023-03-12T13:43:14.496Z,31.12
2023-03-12T13:46:28.788Z,30.20
2023-03-12T13:48:58.246Z,29.79
2023-03-12T13:51:25.338Z,29.86
2023-03-12T13:54:03.247Z,29.88
2023-03-12T13:56:32.142Z,31.19
2023-03-12T13:59:07.225Z,30.55
2023-03-12T14:01:42.271Z,29.91
2023-03-12T14:04:13.699Z,30.36
2023-03-12T14:06:56.810Z,28.49
2023-03-12T14:09:36.842Z,28.10
2023-03-12T14:12:10.744Z,28.83
2023-03-12T14:15:05.727Z,29.71
2023-03-12T14:17:33.695Z,30.11
2023-03-12T14:20:07.579Z,30.01
2023-03-12T14:22:35.718Z,29.24
2023-03-12T14:25:13.540Z,30.32
2023-03-12T14:27:41.171Z,30.08
2023-03-12T14:30:13.953Z,29.80
2023-03-12T14:32:41.120Z,29.37
2023-03-12T14:35:28.477Z,29.00
2023-03-12T14:38:06.424Z,29.78
2023-03-12T14:40:44.776Z,30.11
2023-03-12T14:43:25.602Z,29.45
2023-03-12T14:45:58.976Z,29.55
2023-03-12T14:48:34.622Z,29.81
2023-03-12T14:51:03.410Z,30.27
2023-03-12T14:53:37.344Z,31.00
2023-03-12T14:56:14.125Z,30.86
2023-03-12T14:58:49.037Z,31.79
2023-03-12T15:01:19.791Z,30.90
2023-03-12T15:03:50.306Z,29.82
2023-03-12T15:06:30.927Z,31.23
2023-03-12T15:08:58.695Z,30.55
2023-03-12T15:11:27.556Z,31.13
2023-03-12T15:13:55.534Z,31.81
2023-03-12T15:16:22.777Z,31.19
2023-03-12T15:18:50.368Z,30.99
2023-03-12T15:21:17.611Z,32.03
2023-03-12T15:23:46.883Z,31.66
2023-03-12T15:26:22.220Z,31.20
2023-03-12T15:29:17.366Z,31.73
2023-03-12T15:31:48.882Z,31.95
2023-03-12T15:34:28.183Z,31.71
2023-03-12T15:36:55.223Z,31.65
2023-03-12T15:39:29.927Z,32.24
2023-03-12T15:42:01.201Z,33.45
2023-03-12T15:44:32.435Z,32.30
2023-03-12T15:47:12.574Z,33.81
2023-03-12T15:49:40.229Z,33.70
2023-03-12T15:52:29.323Z,34.20
2023-03-12T15:55:12.877Z,34.37
2023-03-12T15:57:48.638Z,35.00
2023-03-12T16:00:25.275Z,35.02
2023-03-12T16:02:56.302Z,34.56
2023-03-12T16:05:30.089Z,35.08
2023-03-12T16:07:57.800Z,34.95
2023-03-12T16:10:26.848Z,34.49
2023-03-12T16:13:01.480Z,34.14
2023-03-12T16:15:32.209Z,34.52
2023-03-12T16:17:59.126Z,34.47
2023-03-12T16:20:26.320Z,36.26
2023-03-12T16:22:53.495Z,38.59
2023-03-12T16:25:20.584Z,39.92
2023-03-12T16:27:55.646Z,40.85
2023-03-12T16:30:31.402Z,40.62
2023-03-12T16:32:59.536Z,40.77
2023-03-12T16:35:28.366Z,41.24
2023-03-12T16:37:55.770Z,41.21
2023-03-12T16:40:32.813Z,41.40
2023-03-12T16:43:04.725Z,42.04
2023-03-12T16:45:34.885Z,41.84
2023-03-12T16:48:04.369Z,42.82
2023-03-12T16:50:31.411Z,41.98
2023-03-12T16:52:58.592Z,42.25
2023-03-12T16:55:30.465Z,42.82
2023-03-12T16:58:01.919Z,42.10
2023-03-12T17:00:31.195Z,42.18
2023-03-12T17:02:59.149Z,41.90
2023-03-12T17:05:27.767Z,42.63
2023-03-12T17:07:55.209Z,43.27
2023-03-12T17:10:22.699Z,42.33
2023-03-12T17:12:50.147Z,42.36
2023-03-12T17:15:30.788Z,42.18
2023-03-12T17:17:59.532Z,43.52
2023-03-12T17:20:26.465Z,42.78
2023-03-12T17:22:53.471Z,42.55
2023-03-12T17:25:26.285Z,42.21
2023-03-12T17:27:54.043Z,42.86
2023-03-12T17:30:22.218Z,43.21
2023-03-12T17:32:50.101Z,43.05
2023-03-12T17:35:21.150Z,43.38
2023-03-12T17:37:51.214Z,42.39
2023-03-12T17:40:18.334Z,41.83
2023-03-12T17:42:45.367Z,41.88
2023-03-12T17:45:12.355Z,43.71
2023-03-12T17:47:39.212Z,43.44
2023-03-12T17:50:06.630Z,44.19
2023-03-12T17:52:34.122Z,43.67
2023-03-12T17:55:01.420Z,44.11
2023-03-12T17:57:28.362Z,43.88
2023-03-12T17:59:55.319Z,43.46
2023-03-12T18:02:22.467Z,42.42
2023-03-12T18:04:49.464Z,41.96
2023-03-12T18:07:18.243Z,42.87
2023-03-12T18:09:45.416Z,43.02
2023-03-12T18:12:12.597Z,43.17
2023-03-12T18:14:42.474Z,44.76
2023-03-12T18:17:09.376Z,44.11
2023-03-12T18:19:36.247Z,44.57
2023-03-12T18:22:03.169Z,44.66
2023-03-12T18:24:30.170Z,44.97
2023-03-12T18:26:57.202Z,44.45
2023-03-12T18:29:24.412Z,42.83
2023-03-12T18:31:51.257Z,42.65
2023-03-12T18:34:17.929Z,42.80
2023-03-12T18:36:44.773Z,43.45
2023-03-12T18:39:11.543Z,43.08
2023-03-12T18:41:40.754Z,43.14
2023-03-12T18:44:08.819Z,43.35
2023-03-12T18:46:35.680Z,44.18
2023-03-12T18:49:07.780Z,43.80
2023-03-12T18:51:35.525Z,45.35
2023-03-12T18:54:02.426Z,45.86
2023-03-12T18:56:29.357Z,47.20
2023-03-12T18:58:56.282Z,47.86
2023-03-12T19:01:23.083Z,49.94
2023-03-12T19:03:50.066Z,50.70
2023-03-12T19:06:17.285Z,49.76
2023-03-12T19:08:44.328Z,50.07
2023-03-12T19:11:15.679Z,53.92
2023-03-12T19:13:43.240Z,52.32
2023-03-12T19:16:11.891Z,51.00
2023-03-12T19:18:39.573Z,51.32
2023-03-12T19:21:09.789Z,50.79
2023-03-12T19:23:37.132Z,52.62
2023-03-12T19:26:04.759Z,53.87
2023-03-12T19:28:31.680Z,53.41
2023-03-12T19:31:03.205Z,54.21
2023-03-12T19:33:30.453Z,53.58
2023-03-12T19:35:58.209Z,52.04
2023-03-12T19:38:25.350Z,51.58
2023-03-12T19:40:56.981Z,51.15
2023-03-12T19:43:24.479Z,51.08
2023-03-12T19:45:51.702Z,51.85
2023-03-12T19:48:18.790Z,50.64
2023-03-12T19:50:45.666Z,50.00
2023-03-12T19:53:13.400Z,51.43
2023-03-12T19:55:40.280Z,51.86
2023-03-12T19:58:08.382Z,51.25
2023-03-12T20:00:35.292Z,54.13
2023-03-12T20:03:02.331Z,57.07
2023-03-12T20:05:29.257Z,55.77
2023-03-12T20:07:56.118Z,58.85
2023-03-12T20:10:23.116Z,59.39
2023-03-12T20:12:50.036Z,59.35
2023-03-12T20:15:17.044Z,57.80
2023-03-12T20:17:43.898Z,57.66
2023-03-12T20:20:10.865Z,60.12
2023-03-12T20:22:37.775Z,61.25
2023-03-12T20:25:06.396Z,61.26
2023-03-12T20:27:34.443Z,65.59
2023-03-12T20:30:01.389Z,64.44
2023-03-12T20:32:28.903Z,63.22
2023-03-12T20:34:55.814Z,61.60
2023-03-12T20:37:22.722Z,61.19
2023-03-12T20:39:49.625Z,64.07
2023-03-12T20:42:16.599Z,65.44
2023-03-12T20:44:43.454Z,68.35
2023-03-12T20:47:10.114Z,64.56
2023-03-12T20:49:37.009Z,64.97
2023-03-12T20:52:03.980Z,62.93
2023-03-12T20:54:30.832Z,64.40
2023-03-12T20:56:57.580Z,64.09
2023-03-12T20:59:24.674Z,66.83
2023-03-12T21:01:51.544Z,65.49
2023-03-12T21:04:18.522Z,63.52
2023-03-12T21:06:45.393Z,60.56
2023-03-12T21:09:12.233Z,59.10
2023-03-12T21:11:40.298Z,58.97
2023-03-12T21:14:06.958Z,59.65
2023-03-12T21:16:33.934Z,64.54
2023-03-12T21:19:01.210Z,63.88
2023-03-12T21:21:28.109Z,64.30
2023-03-12T21:23:54.959Z,64.58
2023-03-12T21:26:22.097Z,66.62
2023-03-12T21:28:48.989Z,67.15
2023-03-12T21:31:16.211Z,70.03
2023-03-12T21:33:43.334Z,72.22
2023-03-12T21:36:12.873Z,70.53
2023-03-12T21:38:40.608Z,69.06
2023-03-12T21:41:09.843Z,67.66
2023-03-12T21:43:36.924Z,67.95
2023-03-12T21:46:15.368Z,67.71
2023-03-12T21:48:45.005Z,67.01
2023-03-12T21:51:14.123Z,65.33
2023-03-12T21:53:41.096Z,65.54
2023-03-12T21:56:09.038Z,62.64
2023-03-12T21:58:36.646Z,62.50
2023-03-12T22:01:17.415Z,62.89
2023-03-12T22:03:45.584Z,62.97
2023-03-12T22:06:13.837Z,62.60
2023-03-12T22:08:41.771Z,62.23
2023-03-12T22:11:09.274Z,61.86
2023-03-12T22:13:36.171Z,63.23
2023-03-12T22:16:06.949Z,62.54
2023-03-12T22:18:36.264Z,64.76
2023-03-12T22:21:05.431Z,62.71
2023-03-12T22:23:32.356Z,64.43
2023-03-12T22:26:03.839Z,63.85
2023-03-12T22:28:31.639Z,61.08
2023-03-12T22:31:01.932Z,62.22
2023-03-12T22:33:29.484Z,61.35
2023-03-12T22:35:56.599Z,61.19
2023-03-12T22:38:24.170Z,59.83
2023-03-12T22:40:52.608Z,57.69
2023-03-12T22:43:20.585Z,57.82
2023-03-12T22:45:47.294Z,58.43
2023-03-12T22:48:14.129Z,58.62
2023-03-12T22:50:40.784Z,58.14
2023-03-12T22:53:07.629Z,58.94
2023-03-12T22:55:34.395Z,60.33
2023-03-12T22:58:01.305Z,59.51
2023-03-12T23:00:28.223Z,60.21
2023-03-12T23:02:55.098Z,59.71
2023-03-12T23:05:21.760Z,59.49
2023-03-12T23:07:48.911Z,60.01
2023-03-12T23:10:15.891Z,61.18
2023-03-12T23:12:42.815Z,60.30
2023-03-12T23:15:10.029Z,60.19
2023-03-12T23:17:37.160Z,62.99
2023-03-12T23:20:06.002Z,62.93
2023-03-12T23:22:33.593Z,61.46
2023-03-12T23:25:00.480Z,61.31
2023-03-12T23:27:27.382Z,60.49
2023-03-12T23:29:54.239Z,60.78
2023-03-12T23:32:20.950Z,62.20
2023-03-12T23:34:47.837Z,62.82
2023-03-12T23:37:14.982Z,62.37
2023-03-12T23:39:53.861Z,63.36
2023-03-12T23:42:21.615Z,64.16
2023-03-12T23:44:48.491Z,64.50
2023-03-12T23:47:15.344Z,66.61
2023-03-12T23:49:41.995Z,65.60
2023-03-12T23:52:08.847Z,65.22
2023-03-12T23:54:36.076Z,64.65
2023-03-12T23:57:02.970Z,63.86
2023-03-12T23:59:29.903Z,63.49
